sensor_id;sensor_type;location;lat;lon;timestamp;temperature;humidity
10213;DHT22;5150;51.400;6.692;2022-12-01T00:00:17;16.80;99.90
10213;DHT22;5150;51.400;6.692;2022-12-01T00:03:41;16.80;99.90
10213;DHT22;5150;51.400;6.692;2022-12-01T00:07:04;16.80;99.90
10213;DHT22;5150;51.400;6.692;2022-12-01T00:10:27;16.80;99.90
10213;DHT22;5150;51.400;6.692;2022-12-01T00:13:50;16.80;99.90
10213;DHT22;5150;51.400;6.692;2022-12-01T00:17:13;16.80;1.00
10213;DHT22;5150;51.400;6.692;2022-12-01T00:20:38;16.80;1.00
10213;DHT22;5150;51.400;6.692;2022-12-01T00:24:01;16.90;1.00
10213;DHT22;5150;51.400;6.692;2022-12-01T00:27:24;16.80;1.00
10213;DHT22;5150;51.400;6.692;2022-12-01T00:30:47;16.80;1.00
10213;DHT22;5150;51.400;6.692;2022-12-01T00:34:20;16.90;1.00
10213;DHT22;5150;51.400;6.692;2022-12-01T00:37:45;16.90;1.00
10213;DHT22;5150;51.400;6.692;2022-12-01T00:41:08;16.90;1.00
10213;DHT22;5150;51.400;6.692;2022-12-01T00:44:31;16.80;1.00
10213;DHT22;5150;51.400;6.692;2022-12-01T00:47:54;16.90;1.00
10213;DHT22;5150;51.400;6.692;2022-12-01T00:51:17;16.80;1.00
10213;DHT22;5150;51.400;6.692;2022-12-01T00:54:42;16.80;1.00
10213;DHT22;5150;51.400;6.692;2022-12-01T00:58:05;16.80;99.90
10213;DHT22;5150;51.400;6.692;2022-12-01T01:01:28;16.80;99.90
10213;DHT22;5150;51.400;6.692;2022-12-01T01:04:52;16.70;99.90
10213;DHT22;5150;51.400;6.692;2022-12-01T01:08:14;16.80;99.90
10213;DHT22;5150;51.400;6.692;2022-12-01T01:11:39;16.80;99.90
10213;DHT22;5150;51.400;6.692;2022-12-01T01:15:04;16.80;99.90
10213;DHT22;5150;51.400;6.692;2022-12-01T01:18:27;16.70;99.90
10213;DHT22;5150;51.400;6.692;2022-12-01T01:21:51;16.70;99.90
10213;DHT22;5150;51.400;6.692;2022-12-01T01:25:14;16.70;99.90
10213;DHT22;5150;51.400;6.692;2022-12-01T01:28:38;16.70;99.90
10213;DHT22;5150;51.400;6.692;2022-12-01T01:32:02;16.70;99.90
10213;DHT22;5150;51.400;6.692;2022-12-01T01:35:25;16.70;99.90
10213;DHT22;5150;51.400;6.692;2022-12-01T01:38:49;16.70;99.90
10213;DHT22;5150;51.400;6.692;2022-12-01T01:42:13;16.70;99.90
10213;DHT22;5150;51.400;6.692;2022-12-01T01:45:38;16.70;99.90
10213;DHT22;5150;51.400;6.692;2022-12-01T01:49:03;16.70;99.90
10213;DHT22;5150;51.400;6.692;2022-12-01T01:52:27;16.70;99.90
10213;DHT22;5150;51.400;6.692;2022-12-01T01:55:50;16.70;99.90
10213;DHT22;5150;51.400;6.692;2022-12-01T01:59:15;16.60;99.90
10213;DHT22;5150;51.400;6.692;2022-12-01T02:02:43;16.60;1.00
10213;DHT22;5150;51.400;6.692;2022-12-01T02:06:07;16.70;1.00
10213;DHT22;5150;51.400;6.692;2022-12-01T02:09:31;16.70;1.00
10213;DHT22;5150;51.400;6.692;2022-12-01T02:13:06;16.70;1.00
10213;DHT22;5150;51.400;6.692;2022-12-01T02:16:34;16.70;1.00
10213;DHT22;5150;51.400;6.692;2022-12-01T02:20:27;16.70;1.00
10213;DHT22;5150;51.400;6.692;2022-12-01T02:24:35;16.70;19.20
10213;DHT22;5150;51.400;6.692;2022-12-01T02:28:30;16.70;39.20
10213;DHT22;5150;51.400;6.692;2022-12-01T02:32:00;16.70;9.10
10213;DHT22;5150;51.400;6.692;2022-12-01T02:35:32;16.70;5.70
10213;DHT22;5150;51.400;6.692;2022-12-01T02:39:02;16.70;51.00
10213;DHT22;5150;51.400;6.692;2022-12-01T02:42:33;16.70;99.90
10213;DHT22;5150;51.400;6.692;2022-12-01T02:46:17;16.70;99.90
10213;DHT22;5150;51.400;6.692;2022-12-01T02:49:47;16.70;99.90
10213;DHT22;5150;51.400;6.692;2022-12-01T02:53:14;16.70;99.90
10213;DHT22;5150;51.400;6.692;2022-12-01T02:56:38;16.70;99.90
10213;DHT22;5150;51.400;6.692;2022-12-01T03:00:01;16.70;99.90
10213;DHT22;5150;51.400;6.692;2022-12-01T03:03:35;16.70;1.00
10213;DHT22;5150;51.400;6.692;2022-12-01T03:07:09;16.70;1.00
10213;DHT22;5150;51.400;6.692;2022-12-01T03:10:40;16.70;1.00
10213;DHT22;5150;51.400;6.692;2022-12-01T03:14:16;16.70;1.00
10213;DHT22;5150;51.400;6.692;2022-12-01T03:17:46;16.70;1.00
10213;DHT22;5150;51.400;6.692;2022-12-01T03:21:15;16.70;1.00
10213;DHT22;5150;51.400;6.692;2022-12-01T03:24:46;16.70;1.00
10213;DHT22;5150;51.400;6.692;2022-12-01T03:28:10;16.70;1.00
10213;DHT22;5150;51.400;6.692;2022-12-01T03:31:44;16.70;1.00
10213;DHT22;5150;51.400;6.692;2022-12-01T03:35:13;16.70;1.00
10213;DHT22;5150;51.400;6.692;2022-12-01T03:38:38;16.60;1.00
10213;DHT22;5150;51.400;6.692;2022-12-01T03:42:08;16.70;1.00
10213;DHT22;5150;51.400;6.692;2022-12-01T03:45:35;16.70;1.00
10213;DHT22;5150;51.400;6.692;2022-12-01T03:49:02;16.70;1.00
10213;DHT22;5150;51.400;6.692;2022-12-01T03:52:34;16.70;1.00
10213;DHT22;5150;51.400;6.692;2022-12-01T03:56:02;16.70;1.00
10213;DHT22;5150;51.400;6.692;2022-12-01T03:59:28;16.70;14.80
10213;DHT22;5150;51.400;6.692;2022-12-01T04:02:54;16.70;12.50
10213;DHT22;5150;51.400;6.692;2022-12-01T04:06:18;16.60;25.00
10213;DHT22;5150;51.400;6.692;2022-12-01T04:09:41;16.60;62.00
10213;DHT22;5150;51.400;6.692;2022-12-01T04:13:04;16.70;92.40
10213;DHT22;5150;51.400;6.692;2022-12-01T04:16:33;16.60;61.70
10213;DHT22;5150;51.400;6.692;2022-12-01T04:19:57;16.70;28.50
10213;DHT22;5150;51.400;6.692;2022-12-01T04:23:20;16.60;46.00
10213;DHT22;5150;51.400;6.692;2022-12-01T04:26:57;16.70;35.90
10213;DHT22;5150;51.400;6.692;2022-12-01T04:30:20;16.70;43.80
10213;DHT22;5150;51.400;6.692;2022-12-01T04:33:45;16.70;70.30
10213;DHT22;5150;51.400;6.692;2022-12-01T04:37:08;16.70;56.60
10213;DHT22;5150;51.400;6.692;2022-12-01T04:40:32;16.70;42.10
10213;DHT22;5150;51.400;6.692;2022-12-01T04:43:56;16.60;63.70
10213;DHT22;5150;51.400;6.692;2022-12-01T04:47:19;16.60;99.90
10213;DHT22;5150;51.400;6.692;2022-12-01T04:50:43;16.60;99.90
10213;DHT22;5150;51.400;6.692;2022-12-01T04:54:06;16.60;99.90
10213;DHT22;5150;51.400;6.692;2022-12-01T04:57:29;16.60;99.90
10213;DHT22;5150;51.400;6.692;2022-12-01T05:00:52;16.60;99.90
10213;DHT22;5150;51.400;6.692;2022-12-01T05:04:15;16.60;99.90
10213;DHT22;5150;51.400;6.692;2022-12-01T05:07:39;16.60;99.90
10213;DHT22;5150;51.400;6.692;2022-12-01T05:11:03;16.50;99.90
10213;DHT22;5150;51.400;6.692;2022-12-01T05:14:28;16.50;1.00
10213;DHT22;5150;51.400;6.692;2022-12-01T05:17:51;16.50;99.90
10213;DHT22;5150;51.400;6.692;2022-12-01T05:21:14;16.50;99.90
10213;DHT22;5150;51.400;6.692;2022-12-01T05:24:38;16.50;99.90
10213;DHT22;5150;51.400;6.692;2022-12-01T05:28:01;16.50;99.90
10213;DHT22;5150;51.400;6.692;2022-12-01T05:31:24;16.50;99.90
10213;DHT22;5150;51.400;6.692;2022-12-01T05:34:47;16.50;99.90
10213;DHT22;5150;51.400;6.692;2022-12-01T05:38:10;16.50;99.90
10213;DHT22;5150;51.400;6.692;2022-12-01T05:41:35;16.50;99.90
10213;DHT22;5150;51.400;6.692;2022-12-01T05:44:58;16.50;99.90
10213;DHT22;5150;51.400;6.692;2022-12-01T05:48:21;16.50;99.90
10213;DHT22;5150;51.400;6.692;2022-12-01T05:51:44;16.50;99.90
10213;DHT22;5150;51.400;6.692;2022-12-01T05:55:07;16.50;99.90
10213;DHT22;5150;51.400;6.692;2022-12-01T05:58:33;16.50;91.70
10213;DHT22;5150;51.400;6.692;2022-12-01T06:01:56;16.60;30.70
10213;DHT22;5150;51.400;6.692;2022-12-01T06:05:19;16.60;1.00
10213;DHT22;5150;51.400;6.692;2022-12-01T06:08:42;16.50;1.00
10213;DHT22;5150;51.400;6.692;2022-12-01T06:12:06;16.50;1.00
10213;DHT22;5150;51.400;6.692;2022-12-01T06:15:30;16.50;1.00
10213;DHT22;5150;51.400;6.692;2022-12-01T06:18:53;16.50;1.00
10213;DHT22;5150;51.400;6.692;2022-12-01T06:22:16;16.50;1.00
10213;DHT22;5150;51.400;6.692;2022-12-01T06:25:39;16.50;1.00
10213;DHT22;5150;51.400;6.692;2022-12-01T06:29:02;16.50;1.00
10213;DHT22;5150;51.400;6.692;2022-12-01T06:32:26;16.50;1.00
10213;DHT22;5150;51.400;6.692;2022-12-01T06:35:56;16.50;1.00
10213;DHT22;5150;51.400;6.692;2022-12-01T06:39:19;16.50;99.90
10213;DHT22;5150;51.400;6.692;2022-12-01T06:42:42;16.50;99.90
10213;DHT22;5150;51.400;6.692;2022-12-01T06:46:05;16.50;99.90
10213;DHT22;5150;51.400;6.692;2022-12-01T06:49:29;16.50;99.90
10213;DHT22;5150;51.400;6.692;2022-12-01T06:52:53;16.50;99.90
10213;DHT22;5150;51.400;6.692;2022-12-01T06:56:16;16.50;99.90
10213;DHT22;5150;51.400;6.692;2022-12-01T06:59:39;16.50;47.80
10213;DHT22;5150;51.400;6.692;2022-12-01T07:03:02;16.50;1.00
10213;DHT22;5150;51.400;6.692;2022-12-01T07:06:28;16.50;1.00
10213;DHT22;5150;51.400;6.692;2022-12-01T07:09:52;16.50;1.00
10213;DHT22;5150;51.400;6.692;2022-12-01T07:13:15;16.60;1.00
10213;DHT22;5150;51.400;6.692;2022-12-01T07:16:38;16.70;1.00
10213;DHT22;5150;51.400;6.692;2022-12-01T07:20:01;16.80;1.00
10213;DHT22;5150;51.400;6.692;2022-12-01T07:23:26;16.80;99.90
10213;DHT22;5150;51.400;6.692;2022-12-01T07:26:49;16.90;99.90
10213;DHT22;5150;51.400;6.692;2022-12-01T07:30:12;17.00;1.00
10213;DHT22;5150;51.400;6.692;2022-12-01T07:33:35;17.10;1.00
10213;DHT22;5150;51.400;6.692;2022-12-01T07:36:59;17.20;1.00
10213;DHT22;5150;51.400;6.692;2022-12-01T07:40:23;17.20;1.00
10213;DHT22;5150;51.400;6.692;2022-12-01T07:43:47;17.30;99.90
10213;DHT22;5150;51.400;6.692;2022-12-01T07:47:11;17.30;99.90
10213;DHT22;5150;51.400;6.692;2022-12-01T07:50:36;17.40;99.90
10213;DHT22;5150;51.400;6.692;2022-12-01T07:54:01;17.40;99.90
10213;DHT22;5150;51.400;6.692;2022-12-01T07:57:25;17.50;99.90
10213;DHT22;5150;51.400;6.692;2022-12-01T08:00:49;17.50;85.30
10213;DHT22;5150;51.400;6.692;2022-12-01T08:04:12;17.50;11.50
10213;DHT22;5150;51.400;6.692;2022-12-01T08:07:34;17.60;1.00
10213;DHT22;5150;51.400;6.692;2022-12-01T08:10:59;17.60;1.00
10213;DHT22;5150;51.400;6.692;2022-12-01T08:14:23;17.70;1.00
10213;DHT22;5150;51.400;6.692;2022-12-01T08:17:46;17.70;1.00
10213;DHT22;5150;51.400;6.692;2022-12-01T08:21:11;17.70;1.00
10213;DHT22;5150;51.400;6.692;2022-12-01T08:24:34;17.80;1.00
10213;DHT22;5150;51.400;6.692;2022-12-01T08:27:58;17.80;1.00
10213;DHT22;5150;51.400;6.692;2022-12-01T08:31:25;17.60;99.90
10213;DHT22;5150;51.400;6.692;2022-12-01T08:34:49;17.30;1.00
10213;DHT22;5150;51.400;6.692;2022-12-01T08:38:14;16.90;1.00
10213;DHT22;5150;51.400;6.692;2022-12-01T08:41:37;16.60;1.00
10213;DHT22;5150;51.400;6.692;2022-12-01T08:45:00;16.50;1.00
10213;DHT22;5150;51.400;6.692;2022-12-01T08:48:25;16.20;1.00
10213;DHT22;5150;51.400;6.692;2022-12-01T08:51:50;16.30;1.00
10213;DHT22;5150;51.400;6.692;2022-12-01T08:55:13;16.60;1.00
10213;DHT22;5150;51.400;6.692;2022-12-01T08:58:36;16.90;1.00
10213;DHT22;5150;51.400;6.692;2022-12-01T09:01:59;17.20;1.00
10213;DHT22;5150;51.400;6.692;2022-12-01T09:05:29;17.40;1.00
10213;DHT22;5150;51.400;6.692;2022-12-01T09:08:52;17.50;1.00
10213;DHT22;5150;51.400;6.692;2022-12-01T09:12:15;17.60;1.00
10213;DHT22;5150;51.400;6.692;2022-12-01T09:15:38;17.70;1.00
10213;DHT22;5150;51.400;6.692;2022-12-01T09:19:01;17.70;1.00
10213;DHT22;5150;51.400;6.692;2022-12-01T09:22:25;17.80;1.00
10213;DHT22;5150;51.400;6.692;2022-12-01T09:25:49;17.80;1.00
10213;DHT22;5150;51.400;6.692;2022-12-01T09:29:14;17.90;1.00
10213;DHT22;5150;51.400;6.692;2022-12-01T09:32:37;17.90;1.00
10213;DHT22;5150;51.400;6.692;2022-12-01T09:36:01;18.00;1.00
10213;DHT22;5150;51.400;6.692;2022-12-01T09:39:27;18.00;1.00
10213;DHT22;5150;51.400;6.692;2022-12-01T09:42:50;18.10;1.00
10213;DHT22;5150;51.400;6.692;2022-12-01T09:46:17;18.10;1.00
10213;DHT22;5150;51.400;6.692;2022-12-01T09:49:47;18.10;1.00
10213;DHT22;5150;51.400;6.692;2022-12-01T09:53:16;18.20;1.00
10213;DHT22;5150;51.400;6.692;2022-12-01T09:56:45;18.20;1.00
10213;DHT22;5150;51.400;6.692;2022-12-01T10:00:13;18.20;1.00
10213;DHT22;5150;51.400;6.692;2022-12-01T10:03:42;18.20;1.00
10213;DHT22;5150;51.400;6.692;2022-12-01T10:07:16;18.20;1.00
10213;DHT22;5150;51.400;6.692;2022-12-01T10:10:42;18.30;1.00
10213;DHT22;5150;51.400;6.692;2022-12-01T10:14:14;18.40;1.00
10213;DHT22;5150;51.400;6.692;2022-12-01T10:17:48;18.40;1.00
10213;DHT22;5150;51.400;6.692;2022-12-01T10:24:57;18.60;1.00
10213;DHT22;5150;51.400;6.692;2022-12-01T10:32:17;18.70;1.00
10213;DHT22;5150;51.400;6.692;2022-12-01T10:35:40;18.70;1.00
10213;DHT22;5150;51.400;6.692;2022-12-01T10:39:05;18.70;1.00
10213;DHT22;5150;51.400;6.692;2022-12-01T10:42:33;18.70;1.00
10213;DHT22;5150;51.400;6.692;2022-12-01T10:45:59;18.70;1.00
10213;DHT22;5150;51.400;6.692;2022-12-01T10:49:35;18.60;1.00
10213;DHT22;5150;51.400;6.692;2022-12-01T10:52:59;18.50;1.00
10213;DHT22;5150;51.400;6.692;2022-12-01T10:56:22;18.50;1.00
10213;DHT22;5150;51.400;6.692;2022-12-01T10:59:49;18.50;1.00
10213;DHT22;5150;51.400;6.692;2022-12-01T11:03:19;18.40;1.00
10213;DHT22;5150;51.400;6.692;2022-12-01T11:06:47;18.40;1.00
10213;DHT22;5150;51.400;6.692;2022-12-01T11:10:16;18.40;1.00
10213;DHT22;5150;51.400;6.692;2022-12-01T11:13:41;18.50;1.00
10213;DHT22;5150;51.400;6.692;2022-12-01T11:17:15;18.50;1.00
10213;DHT22;5150;51.400;6.692;2022-12-01T11:20:39;18.40;1.00
10213;DHT22;5150;51.400;6.692;2022-12-01T11:24:23;18.50;1.00
10213;DHT22;5150;51.400;6.692;2022-12-01T11:27:50;18.50;1.00
10213;DHT22;5150;51.400;6.692;2022-12-01T11:31:15;18.50;1.00
10213;DHT22;5150;51.400;6.692;2022-12-01T11:34:38;18.60;1.00
10213;DHT22;5150;51.400;6.692;2022-12-01T11:38:03;18.60;1.00
10213;DHT22;5150;51.400;6.692;2022-12-01T11:41:48;18.70;1.00
10213;DHT22;5150;51.400;6.692;2022-12-01T11:45:29;18.70;99.90
10213;DHT22;5150;51.400;6.692;2022-12-01T11:48:56;18.70;99.90
10213;DHT22;5150;51.400;6.692;2022-12-01T11:52:25;18.70;99.90
10213;DHT22;5150;51.400;6.692;2022-12-01T11:55:49;18.80;99.90
10213;DHT22;5150;51.400;6.692;2022-12-01T11:59:16;18.80;99.90
10213;DHT22;5150;51.400;6.692;2022-12-01T12:02:43;18.80;99.90
10213;DHT22;5150;51.400;6.692;2022-12-01T12:06:17;18.80;99.90
10213;DHT22;5150;51.400;6.692;2022-12-01T12:10:14;18.80;99.90
10213;DHT22;5150;51.400;6.692;2022-12-01T12:14:02;18.80;99.90
10213;DHT22;5150;51.400;6.692;2022-12-01T12:17:46;18.80;99.90
10213;DHT22;5150;51.400;6.692;2022-12-01T12:21:21;18.70;99.90
10213;DHT22;5150;51.400;6.692;2022-12-01T12:24:56;18.70;99.90
10213;DHT22;5150;51.400;6.692;2022-12-01T12:28:35;18.80;99.90
10213;DHT22;5150;51.400;6.692;2022-12-01T12:32:10;18.80;99.90
10213;DHT22;5150;51.400;6.692;2022-12-01T12:35:42;18.90;99.90
10213;DHT22;5150;51.400;6.692;2022-12-01T12:39:18;18.90;99.90
10213;DHT22;5150;51.400;6.692;2022-12-01T12:42:49;19.00;99.90
10213;DHT22;5150;51.400;6.692;2022-12-01T12:46:18;19.00;99.90
10213;DHT22;5150;51.400;6.692;2022-12-01T12:49:45;19.00;99.90
10213;DHT22;5150;51.400;6.692;2022-12-01T12:53:15;19.00;99.90
10213;DHT22;5150;51.400;6.692;2022-12-01T12:56:43;19.10;99.90
10213;DHT22;5150;51.400;6.692;2022-12-01T13:00:13;19.10;99.90
10213;DHT22;5150;51.400;6.692;2022-12-01T13:03:49;19.10;99.90
10213;DHT22;5150;51.400;6.692;2022-12-01T13:07:23;19.00;99.90
10213;DHT22;5150;51.400;6.692;2022-12-01T13:10:54;19.00;99.90
10213;DHT22;5150;51.400;6.692;2022-12-01T13:14:23;19.00;99.90
10213;DHT22;5150;51.400;6.692;2022-12-01T13:17:51;19.00;99.90
10213;DHT22;5150;51.400;6.692;2022-12-01T13:21:17;18.90;99.90
10213;DHT22;5150;51.400;6.692;2022-12-01T13:24:41;18.90;99.90
10213;DHT22;5150;51.400;6.692;2022-12-01T13:28:13;18.90;99.90
10213;DHT22;5150;51.400;6.692;2022-12-01T13:31:41;18.90;99.90
10213;DHT22;5150;51.400;6.692;2022-12-01T13:35:19;18.80;99.90
10213;DHT22;5150;51.400;6.692;2022-12-01T13:38:55;18.80;99.90
10213;DHT22;5150;51.400;6.692;2022-12-01T13:42:21;18.70;99.90
10213;DHT22;5150;51.400;6.692;2022-12-01T13:45:46;18.70;99.90
10213;DHT22;5150;51.400;6.692;2022-12-01T13:49:33;18.70;99.90
10213;DHT22;5150;51.400;6.692;2022-12-01T13:53:09;18.70;99.90
10213;DHT22;5150;51.400;6.692;2022-12-01T13:56:43;18.60;99.90
10213;DHT22;5150;51.400;6.692;2022-12-01T14:00:22;18.60;99.90
10213;DHT22;5150;51.400;6.692;2022-12-01T14:03:52;18.60;99.90
10213;DHT22;5150;51.400;6.692;2022-12-01T14:07:42;18.60;99.90
10213;DHT22;5150;51.400;6.692;2022-12-01T14:11:15;18.50;99.90
10213;DHT22;5150;51.400;6.692;2022-12-01T14:14:43;18.50;99.90
10213;DHT22;5150;51.400;6.692;2022-12-01T14:18:31;18.50;99.90
10213;DHT22;5150;51.400;6.692;2022-12-01T14:21:56;18.40;99.90
10213;DHT22;5150;51.400;6.692;2022-12-01T14:25:23;18.40;99.90
10213;DHT22;5150;51.400;6.692;2022-12-01T14:29:29;18.40;1.00
10213;DHT22;5150;51.400;6.692;2022-12-01T14:37:01;18.40;1.00
10213;DHT22;5150;51.400;6.692;2022-12-01T14:40:28;18.30;1.00
10213;DHT22;5150;51.400;6.692;2022-12-01T14:43:55;18.30;1.00
10213;DHT22;5150;51.400;6.692;2022-12-01T14:47:32;18.30;1.00
10213;DHT22;5150;51.400;6.692;2022-12-01T14:51:10;18.20;1.00
10213;DHT22;5150;51.400;6.692;2022-12-01T14:54:42;18.20;1.00
10213;DHT22;5150;51.400;6.692;2022-12-01T14:58:10;18.20;1.00
10213;DHT22;5150;51.400;6.692;2022-12-01T15:01:36;18.10;1.00
10213;DHT22;5150;51.400;6.692;2022-12-01T15:05:07;18.10;1.00
10213;DHT22;5150;51.400;6.692;2022-12-01T15:08:33;18.10;1.00
10213;DHT22;5150;51.400;6.692;2022-12-01T15:12:25;18.00;1.00
10213;DHT22;5150;51.400;6.692;2022-12-01T15:15:50;18.00;1.00
10213;DHT22;5150;51.400;6.692;2022-12-01T15:19:31;17.90;1.00
10213;DHT22;5150;51.400;6.692;2022-12-01T15:22:55;17.90;1.00
10213;DHT22;5150;51.400;6.692;2022-12-01T15:26:21;17.90;1.00
10213;DHT22;5150;51.400;6.692;2022-12-01T15:29:46;17.80;1.00
10213;DHT22;5150;51.400;6.692;2022-12-01T15:33:16;17.80;1.00
10213;DHT22;5150;51.400;6.692;2022-12-01T15:36:47;17.80;1.00
10213;DHT22;5150;51.400;6.692;2022-12-01T15:40:15;17.80;1.00
10213;DHT22;5150;51.400;6.692;2022-12-01T15:43:59;17.80;1.00
10213;DHT22;5150;51.400;6.692;2022-12-01T15:47:33;17.80;1.00
10213;DHT22;5150;51.400;6.692;2022-12-01T15:51:04;17.80;1.00
10213;DHT22;5150;51.400;6.692;2022-12-01T15:54:28;17.70;1.00
10213;DHT22;5150;51.400;6.692;2022-12-01T15:57:51;17.70;1.00
10213;DHT22;5150;51.400;6.692;2022-12-01T16:01:16;17.70;1.00
10213;DHT22;5150;51.400;6.692;2022-12-01T16:04:42;17.70;1.00
10213;DHT22;5150;51.400;6.692;2022-12-01T16:08:13;17.60;1.00
10213;DHT22;5150;51.400;6.692;2022-12-01T16:11:37;17.60;1.00
10213;DHT22;5150;51.400;6.692;2022-12-01T16:15:13;17.60;1.00
10213;DHT22;5150;51.400;6.692;2022-12-01T16:18:38;17.60;1.00
10213;DHT22;5150;51.400;6.692;2022-12-01T16:22:13;17.60;1.00
10213;DHT22;5150;51.400;6.692;2022-12-01T16:25:42;17.60;1.00
10213;DHT22;5150;51.400;6.692;2022-12-01T16:29:16;17.60;1.00
10213;DHT22;5150;51.400;6.692;2022-12-01T16:32:41;17.60;1.00
10213;DHT22;5150;51.400;6.692;2022-12-01T16:36:05;17.60;1.00
10213;DHT22;5150;51.400;6.692;2022-12-01T16:39:29;17.60;1.00
10213;DHT22;5150;51.400;6.692;2022-12-01T16:42:52;17.60;1.00
10213;DHT22;5150;51.400;6.692;2022-12-01T16:46:16;17.50;1.00
10213;DHT22;5150;51.400;6.692;2022-12-01T16:49:40;17.50;1.00
10213;DHT22;5150;51.400;6.692;2022-12-01T16:53:04;17.50;1.00
10213;DHT22;5150;51.400;6.692;2022-12-01T16:56:33;17.50;1.00
10213;DHT22;5150;51.400;6.692;2022-12-01T16:59:57;17.50;1.00
10213;DHT22;5150;51.400;6.692;2022-12-01T17:03:21;17.40;1.00
10213;DHT22;5150;51.400;6.692;2022-12-01T17:06:45;17.50;1.00
10213;DHT22;5150;51.400;6.692;2022-12-01T17:10:09;17.50;1.00
10213;DHT22;5150;51.400;6.692;2022-12-01T17:13:33;17.40;1.00
10213;DHT22;5150;51.400;6.692;2022-12-01T17:16:57;17.40;1.00
10213;DHT22;5150;51.400;6.692;2022-12-01T17:20:19;17.40;1.00
10213;DHT22;5150;51.400;6.692;2022-12-01T17:23:42;17.30;1.00
10213;DHT22;5150;51.400;6.692;2022-12-01T17:27:05;17.40;1.00
10213;DHT22;5150;51.400;6.692;2022-12-01T17:30:30;17.30;1.00
10213;DHT22;5150;51.400;6.692;2022-12-01T17:33:53;17.30;1.00
10213;DHT22;5150;51.400;6.692;2022-12-01T17:37:17;17.30;1.00
10213;DHT22;5150;51.400;6.692;2022-12-01T17:40:42;17.20;1.00
10213;DHT22;5150;51.400;6.692;2022-12-01T17:44:07;17.20;1.00
10213;DHT22;5150;51.400;6.692;2022-12-01T17:47:32;17.20;1.00
10213;DHT22;5150;51.400;6.692;2022-12-01T17:50:55;17.10;1.00
10213;DHT22;5150;51.400;6.692;2022-12-01T17:54:20;17.10;1.00
10213;DHT22;5150;51.400;6.692;2022-12-01T17:57:45;17.10;1.00
10213;DHT22;5150;51.400;6.692;2022-12-01T18:01:26;17.10;1.00
10213;DHT22;5150;51.400;6.692;2022-12-01T18:04:53;17.10;1.00
10213;DHT22;5150;51.400;6.692;2022-12-01T18:08:16;17.00;1.00
10213;DHT22;5150;51.400;6.692;2022-12-01T18:11:39;17.00;1.00
10213;DHT22;5150;51.400;6.692;2022-12-01T18:15:03;17.00;1.00
10213;DHT22;5150;51.400;6.692;2022-12-01T18:18:26;17.00;1.00
10213;DHT22;5150;51.400;6.692;2022-12-01T18:21:50;17.00;1.00
10213;DHT22;5150;51.400;6.692;2022-12-01T18:25:14;16.90;1.00
10213;DHT22;5150;51.400;6.692;2022-12-01T18:28:37;16.90;1.00
10213;DHT22;5150;51.400;6.692;2022-12-01T18:32:00;16.90;1.00
10213;DHT22;5150;51.400;6.692;2022-12-01T18:35:23;16.90;1.00
10213;DHT22;5150;51.400;6.692;2022-12-01T18:38:55;16.90;1.00
10213;DHT22;5150;51.400;6.692;2022-12-01T18:42:19;16.90;1.00
10213;DHT22;5150;51.400;6.692;2022-12-01T18:45:42;16.90;1.00
10213;DHT22;5150;51.400;6.692;2022-12-01T18:49:05;16.80;1.00
10213;DHT22;5150;51.400;6.692;2022-12-01T18:52:30;16.80;1.00
10213;DHT22;5150;51.400;6.692;2022-12-01T18:56:00;16.80;1.00
10213;DHT22;5150;51.400;6.692;2022-12-01T18:59:24;16.80;1.00
10213;DHT22;5150;51.400;6.692;2022-12-01T19:02:47;16.80;1.00
10213;DHT22;5150;51.400;6.692;2022-12-01T19:06:10;16.80;1.00
10213;DHT22;5150;51.400;6.692;2022-12-01T19:09:34;16.70;1.00
10213;DHT22;5150;51.400;6.692;2022-12-01T19:12:59;16.70;1.00
10213;DHT22;5150;51.400;6.692;2022-12-01T19:16:22;16.70;1.00
10213;DHT22;5150;51.400;6.692;2022-12-01T19:19:46;16.70;1.00
10213;DHT22;5150;51.400;6.692;2022-12-01T19:23:11;16.70;1.00
10213;DHT22;5150;51.400;6.692;2022-12-01T19:26:34;16.70;1.00
10213;DHT22;5150;51.400;6.692;2022-12-01T19:29:59;16.70;1.00
10213;DHT22;5150;51.400;6.692;2022-12-01T19:33:22;16.70;1.00
10213;DHT22;5150;51.400;6.692;2022-12-01T19:36:45;16.70;1.00
10213;DHT22;5150;51.400;6.692;2022-12-01T19:40:09;16.70;1.00
10213;DHT22;5150;51.400;6.692;2022-12-01T19:43:32;16.60;35.90
10213;DHT22;5150;51.400;6.692;2022-12-01T19:46:57;16.60;62.70
10213;DHT22;5150;51.400;6.692;2022-12-01T19:50:20;16.60;84.70
10213;DHT22;5150;51.400;6.692;2022-12-01T19:53:43;16.60;79.80
10213;DHT22;5150;51.400;6.692;2022-12-01T19:57:06;16.60;77.50
10213;DHT22;5150;51.400;6.692;2022-12-01T20:00:29;16.60;72.80
10213;DHT22;5150;51.400;6.692;2022-12-01T20:03:54;16.60;71.80
10213;DHT22;5150;51.400;6.692;2022-12-01T20:07:17;16.60;73.50
10213;DHT22;5150;51.400;6.692;2022-12-01T20:10:45;16.60;73.20
10213;DHT22;5150;51.400;6.692;2022-12-01T20:14:10;16.60;75.20
10213;DHT22;5150;51.400;6.692;2022-12-01T20:17:34;16.60;75.40
10213;DHT22;5150;51.400;6.692;2022-12-01T20:21:10;16.60;90.10
10213;DHT22;5150;51.400;6.692;2022-12-01T20:24:37;16.50;99.90
10213;DHT22;5150;51.400;6.692;2022-12-01T20:28:01;16.50;99.90
10213;DHT22;5150;51.400;6.692;2022-12-01T20:31:26;16.50;99.90
10213;DHT22;5150;51.400;6.692;2022-12-01T20:34:50;16.50;99.90
10213;DHT22;5150;51.400;6.692;2022-12-01T20:38:17;16.50;99.90
10213;DHT22;5150;51.400;6.692;2022-12-01T20:41:48;16.50;99.90
10213;DHT22;5150;51.400;6.692;2022-12-01T20:45:11;16.50;97.20
10213;DHT22;5150;51.400;6.692;2022-12-01T20:48:34;16.50;90.70
10213;DHT22;5150;51.400;6.692;2022-12-01T20:51:57;16.50;95.00
10213;DHT22;5150;51.400;6.692;2022-12-01T20:55:22;16.50;99.70
10213;DHT22;5150;51.400;6.692;2022-12-01T20:58:45;16.50;99.90
10213;DHT22;5150;51.400;6.692;2022-12-01T21:02:09;16.50;99.90
10213;DHT22;5150;51.400;6.692;2022-12-01T21:05:32;16.50;99.90
10213;DHT22;5150;51.400;6.692;2022-12-01T21:08:55;16.50;99.90
10213;DHT22;5150;51.400;6.692;2022-12-01T21:12:19;16.50;99.90
10213;DHT22;5150;51.400;6.692;2022-12-01T21:16:01;16.40;99.90
10213;DHT22;5150;51.400;6.692;2022-12-01T21:19:40;16.40;99.90
10213;DHT22;5150;51.400;6.692;2022-12-01T21:23:09;16.40;99.90
10213;DHT22;5150;51.400;6.692;2022-12-01T21:26:34;16.40;99.90
10213;DHT22;5150;51.400;6.692;2022-12-01T21:29:59;16.40;99.90
10213;DHT22;5150;51.400;6.692;2022-12-01T21:33:26;16.40;99.90
10213;DHT22;5150;51.400;6.692;2022-12-01T21:36:51;16.40;99.90
10213;DHT22;5150;51.400;6.692;2022-12-01T21:40:18;16.40;99.90
10213;DHT22;5150;51.400;6.692;2022-12-01T21:43:42;16.40;99.90
10213;DHT22;5150;51.400;6.692;2022-12-01T21:47:18;16.40;99.90
10213;DHT22;5150;51.400;6.692;2022-12-01T21:50:42;16.30;99.90
10213;DHT22;5150;51.400;6.692;2022-12-01T21:54:13;16.30;99.90
10213;DHT22;5150;51.400;6.692;2022-12-01T21:57:40;16.30;99.90
10213;DHT22;5150;51.400;6.692;2022-12-01T22:01:14;16.30;99.90
10213;DHT22;5150;51.400;6.692;2022-12-01T22:04:39;16.30;99.90
10213;DHT22;5150;51.400;6.692;2022-12-01T22:08:13;16.30;99.90
10213;DHT22;5150;51.400;6.692;2022-12-01T22:11:37;16.30;99.90
10213;DHT22;5150;51.400;6.692;2022-12-01T22:15:00;16.30;99.90
10213;DHT22;5150;51.400;6.692;2022-12-01T22:18:35;16.40;99.90
10213;DHT22;5150;51.400;6.692;2022-12-01T22:22:06;16.40;99.90
10213;DHT22;5150;51.400;6.692;2022-12-01T22:25:36;16.40;99.90
10213;DHT22;5150;51.400;6.692;2022-12-01T22:28:59;16.40;99.90
10213;DHT22;5150;51.400;6.692;2022-12-01T22:32:34;16.40;99.90